Time;durP1;ratioP1;P1;durP2;ratioP2;P2;SDS_P1;SDS_P2;PMS_P1;PMS_P2;Temp;Humidity;BMP_temperature;BMP_pressure;BME280_temperature;BME280_humidity;BME280_pressure;Samples;Min_cycle;Max_cycle;Signal;HPM_P1;HPM_P2
2019/08/28 00:00:20;;;;;;;16.55;14.95;;;;;;;18.11;100;95334.87;;;;
2019/08/28 00:01:25;;;;;;;16.65;14.9;;;;;;;18.11;100;95326.28;;;;
2019/08/28 00:02:27;;;;;;;16.65;14.9;;;;;;;18.11;100;95326.28;;;;
2019/08/28 00:03:28;;;;;;;16.05;14.45;;;;;;;18.09;100;95331.22;;;;
2019/08/28 00:04:29;;;;;;;16.05;14.45;;;;;;;18.09;100;95331.22;;;;
2019/08/28 00:05:30;;;;;;;16.05;14.45;;;;;;;18.09;100;95331.22;;;;
2019/08/28 00:06:33;;;;;;;16;14.5;;;;;;;18.08;100;95322.73;;;;
2019/08/28 00:07:34;;;;;;;16;14.5;;;;;;;18.08;100;95322.73;;;;
2019/08/28 00:08:35;;;;;;;16.3;14.75;;;;;;;18.06;100;95326.28;;;;
2019/08/28 00:09:37;;;;;;;16.3;14.75;;;;;;;18.06;100;95326.28;;;;
2019/08/28 00:10:38;;;;;;;16.3;14.75;;;;;;;18.06;100;95326.28;;;;
2019/08/28 00:11:40;;;;;;;16.45;14.85;;;;;;;18.05;100;95322.48;;;;
2019/08/28 00:12:41;;;;;;;16.45;14.85;;;;;;;18.05;100;95322.48;;;;
2019/08/28 00:13:43;;;;;;;17;15.3;;;;;;;18.03;100;95326.03;;;;
2019/08/28 00:14:44;;;;;;;17;15.3;;;;;;;18.03;100;95326.03;;;;
2019/08/28 00:15:45;;;;;;;17;15.3;;;;;;;18.03;100;95326.03;;;;
2019/08/28 00:16:48;;;;;;;15.8;14.3;;;;;;;18.01;100;95330.83;;;;
2019/08/28 00:17:49;;;;;;;15.8;14.3;;;;;;;18.01;100;95330.83;;;;
2019/08/28 00:18:50;;;;;;;15.8;14.3;;;;;;;18.01;100;95330.83;;;;
2019/08/28 00:19:52;;;;;;;15.95;14.45;;;;;;;17.99;100;95329.88;;;;
2019/08/28 00:20:53;;;;;;;15.95;14.45;;;;;;;17.99;100;95329.88;;;;
2019/08/28 00:21:54;;;;;;;15.8;14.4;;;;;;;17.97;100;95328.39;;;;
2019/08/28 00:22:55;;;;;;;15.8;14.4;;;;;;;17.97;100;95328.39;;;;
2019/08/28 00:23:57;;;;;;;15.8;14.4;;;;;;;17.97;100;95328.39;;;;
2019/08/28 00:24:58;;;;;;;15.45;13.9;;;;;;;17.95;100;95327.47;;;;
2019/08/28 00:25:59;;;;;;;15.45;13.9;;;;;;;17.95;100;95327.47;;;;
2019/08/28 00:27:00;;;;;;;15.6;14.1;;;;;;;17.95;100;95333.88;;;;
2019/08/28 00:28:01;;;;;;;15.6;14.1;;;;;;;17.95;100;95333.88;;;;
2019/08/28 00:29:03;;;;;;;15.6;14.1;;;;;;;17.95;100;95333.88;;;;
2019/08/28 00:30:27;;;;;;;15.8;14.35;;;;;;;17.94;100;95330.86;;;;
2019/08/28 00:31:30;;;;;;;15.8;14.35;;;;;;;17.94;100;95330.86;;;;
2019/08/28 00:32:31;;;;;;;15;13.4;;;;;;;17.92;100;95332.51;;;;
2019/08/28 00:33:32;;;;;;;15;13.4;;;;;;;17.92;100;95332.51;;;;
2019/08/28 00:34:34;;;;;;;15;13.4;;;;;;;17.92;100;95332.51;;;;
2019/08/28 00:35:35;;;;;;;15.4;13.9;;;;;;;17.92;100;95334.42;;;;
2019/08/28 00:36:36;;;;;;;15.4;13.9;;;;;;;17.92;100;95334.42;;;;
2019/08/28 00:37:37;;;;;;;15.2;13.6;;;;;;;17.91;100;95339.22;;;;
2019/08/28 00:38:38;;;;;;;15.2;13.6;;;;;;;17.91;100;95339.22;;;;
2019/08/28 00:39:40;;;;;;;15.2;13.6;;;;;;;17.91;100;95339.22;;;;
2019/08/28 00:40:41;;;;;;;14.95;13.45;;;;;;;17.89;100;95342.65;;;;
2019/08/28 00:41:42;;;;;;;14.95;13.45;;;;;;;17.89;100;95342.65;;;;
2019/08/28 00:42:43;;;;;;;14.95;13.45;;;;;;;17.89;100;95342.65;;;;
2019/08/28 00:43:44;;;;;;;14.9;13.45;;;;;;;17.9;100;95338.01;;;;
2019/08/28 00:44:45;;;;;;;14.9;13.45;;;;;;;17.9;100;95338.01;;;;
2019/08/28 00:45:47;;;;;;;14.25;12.95;;;;;;;17.89;100;95340.45;;;;
2019/08/28 00:46:48;;;;;;;14.25;12.95;;;;;;;17.89;100;95340.45;;;;
2019/08/28 00:47:49;;;;;;;14.25;12.95;;;;;;;17.89;100;95340.45;;;;
2019/08/28 00:48:50;;;;;;;15.05;13.55;;;;;;;17.87;100;95343.06;;;;
2019/08/28 00:49:51;;;;;;;15.05;13.55;;;;;;;17.87;100;95343.06;;;;
2019/08/28 00:50:52;;;;;;;14.7;13.4;;;;;;;17.86;100;95331.47;;;;
2019/08/28 00:51:53;;;;;;;14.7;13.4;;;;;;;17.86;100;95331.47;;;;
2019/08/28 00:52:55;;;;;;;14.7;13.4;;;;;;;17.86;100;95331.47;;;;
2019/08/28 00:53:56;;;;;;;14.45;13.05;;;;;;;17.85;100;95338.95;;;;
2019/08/28 00:54:57;;;;;;;14.45;13.05;;;;;;;17.85;100;95338.95;;;;
2019/08/28 00:55:58;;;;;;;14.45;13.05;;;;;;;17.85;100;95338.95;;;;
2019/08/28 00:56:59;;;;;;;14.1;12.7;;;;;;;17.83;100;95337.87;;;;
2019/08/28 00:58:01;;;;;;;14.1;12.7;;;;;;;17.83;100;95337.87;;;;
2019/08/28 00:59:02;;;;;;;15.05;13.65;;;;;;;17.82;100;95335.85;;;;
2019/08/28 01:00:04;;;;;;;15.05;13.65;;;;;;;17.82;100;95335.85;;;;
2019/08/28 01:01:06;;;;;;;15.05;13.65;;;;;;;17.82;100;95335.85;;;;
2019/08/28 01:02:07;;;;;;;14.65;13.35;;;;;;;17.79;100;95333.11;;;;
2019/08/28 01:03:09;;;;;;;14.65;13.35;;;;;;;17.79;100;95333.11;;;;
2019/08/28 01:04:10;;;;;;;14.9;13.55;;;;;;;17.77;100;95330.41;;;;
2019/08/28 01:05:12;;;;;;;14.9;13.55;;;;;;;17.77;100;95330.41;;;;
2019/08/28 01:06:14;;;;;;;14.9;13.55;;;;;;;17.77;100;95330.41;;;;
2019/08/28 01:07:16;;;;;;;15.6;14.05;;;;;;;17.74;100;95328.63;;;;
2019/08/28 01:08:17;;;;;;;15.6;14.05;;;;;;;17.74;100;95328.63;;;;
2019/08/28 01:09:19;;;;;;;15.6;14.05;;;;;;;17.74;100;95328.63;;;;
2019/08/28 01:10:20;;;;;;;15.85;14.2;;;;;;;17.72;100;95335.89;;;;
2019/08/28 01:11:22;;;;;;;15.85;14.2;;;;;;;17.72;100;95335.89;;;;
2019/08/28 01:12:24;;;;;;;15.85;14.35;;;;;;;17.69;100;95330.97;;;;
2019/08/28 01:13:25;;;;;;;15.85;14.35;;;;;;;17.69;100;95330.97;;;;
2019/08/28 01:14:26;;;;;;;15.85;14.35;;;;;;;17.69;100;95330.97;;;;
2019/08/28 01:15:27;;;;;;;15.05;13.45;;;;;;;17.66;100;95338.37;;;;
2019/08/28 01:16:31;;;;;;;15.05;13.45;;;;;;;17.66;100;95338.37;;;;
2019/08/28 01:17:32;;;;;;;15.15;13.7;;;;;;;17.61;100;95330.99;;;;
2019/08/28 01:18:34;;;;;;;15.15;13.7;;;;;;;17.61;100;95330.99;;;;
2019/08/28 01:19:35;;;;;;;15.15;13.7;;;;;;;17.61;100;95330.99;;;;
2019/08/28 01:20:36;;;;;;;16.05;14.55;;;;;;;17.58;100;95335.66;;;;
2019/08/28 01:21:39;;;;;;;16.05;14.55;;;;;;;17.58;100;95335.66;;;;
2019/08/28 01:22:40;;;;;;;16.05;14.55;;;;;;;17.58;100;95335.66;;;;
2019/08/28 01:23:41;;;;;;;16;14.45;;;;;;;17.53;100;95337.04;;;;
2019/08/28 01:24:42;;;;;;;16;14.45;;;;;;;17.53;100;95337.04;;;;
2019/08/28 01:25:43;;;;;;;15.6;14.1;;;;;;;17.5;100;95337.98;;;;
2019/08/28 01:26:45;;;;;;;15.6;14.1;;;;;;;17.5;100;95337.98;;;;
2019/08/28 01:27:46;;;;;;;15.6;14.1;;;;;;;17.5;100;95337.98;;;;
2019/08/28 01:28:47;;;;;;;16.3;14.5;;;;;;;17.47;100;95342.77;;;;
2019/08/28 01:29:49;;;;;;;16.3;14.5;;;;;;;17.47;100;95342.77;;;;
2019/08/28 01:31:27;;;;;;;15.35;13.95;;;;;;;17.44;100;95340.58;;;;
2019/08/28 01:32:52;;;;;;;15.35;13.95;;;;;;;17.44;100;95340.58;;;;
2019/08/28 01:34:02;;;;;;;15.65;14.05;;;;;;;17.41;100;95341.14;;;;
2019/08/28 01:35:09;;;;;;;15.65;14.05;;;;;;;17.41;100;95341.14;;;;
2019/08/28 01:41:25;;;;;;;14.5;13.1;;;;;;;17.34;100;95348.27;;;;
2019/08/28 01:42:26;;;;;;;14.5;13.1;;;;;;;17.34;100;95348.27;;;;
2019/08/28 01:43:27;;;;;;;14.5;13.1;;;;;;;17.34;100;95348.27;;;;
2019/08/28 01:44:29;;;;;;;14.8;13.3;;;;;;;17.33;100;95345.78;;;;
2019/08/28 01:45:30;;;;;;;14.8;13.3;;;;;;;17.33;100;95345.78;;;;
2019/08/28 01:46:32;;;;;;;14.8;13.3;;;;;;;17.33;100;95345.78;;;;
2019/08/28 01:47:34;;;;;;;14.65;13.2;;;;;;;17.32;100;95346.73;;;;
2019/08/28 01:48:35;;;;;;;14.65;13.2;;;;;;;17.32;100;95346.73;;;;
2019/08/28 01:49:36;;;;;;;14.2;12.75;;;;;;;17.32;100;95348.1;;;;
2019/08/28 01:50:37;;;;;;;14.2;12.75;;;;;;;17.32;100;95348.1;;;;
2019/08/28 01:51:38;;;;;;;14.2;12.75;;;;;;;17.32;100;95348.1;;;;
2019/08/28 01:52:40;;;;;;;13.65;12.45;;;;;;;17.33;100;95351.25;;;;
2019/08/28 01:53:41;;;;;;;13.65;12.45;;;;;;;17.33;100;95351.25;;;;
2019/08/28 01:54:42;;;;;;;13.65;12.45;;;;;;;17.33;100;95351.25;;;;
2019/08/28 01:55:44;;;;;;;13.65;12.45;;;;;;;17.33;100;95351.25;;;;
2019/08/28 01:56:45;;;;;;;13.65;12.45;;;;;;;17.33;100;95351.25;;;;
2019/08/28 01:57:46;;;;;;;14.15;12.75;;;;;;;17.41;100;95350.7;;;;
2019/08/28 01:58:48;;;;;;;14.15;12.75;;;;;;;17.41;100;95350.7;;;;
2019/08/28 01:59:49;;;;;;;14.15;12.75;;;;;;;17.41;100;95350.7;;;;
2019/08/28 02:00:50;;;;;;;13.85;12.55;;;;;;;17.44;100;95349.18;;;;
2019/08/28 02:01:51;;;;;;;13.85;12.55;;;;;;;17.44;100;95349.18;;;;
2019/08/28 02:02:53;;;;;;;13.4;12.2;;;;;;;17.43;100;95345.2;;;;
2019/08/28 02:03:54;;;;;;;13.4;12.2;;;;;;;17.43;100;95345.2;;;;
2019/08/28 02:04:56;;;;;;;13.4;12.2;;;;;;;17.43;100;95345.2;;;;
2019/08/28 02:05:57;;;;;;;14.5;13.1;;;;;;;17.43;100;95347.94;;;;
2019/08/28 02:06:58;;;;;;;14.5;13.1;;;;;;;17.43;100;95347.94;;;;
2019/08/28 02:08:00;;;;;;;14.5;13.1;;;;;;;17.43;100;95347.94;;;;
2019/08/28 02:09:01;;;;;;;13.75;12.4;;;;;;;17.43;100;95348.92;;;;
2019/08/28 02:10:05;;;;;;;13.75;12.4;;;;;;;17.43;100;95348.92;;;;
2019/08/28 02:11:08;;;;;;;15.05;13.65;;;;;;;17.43;100;95349.88;;;;
2019/08/28 02:12:09;;;;;;;15.05;13.65;;;;;;;17.43;100;95349.88;;;;
2019/08/28 02:13:10;;;;;;;15.05;13.65;;;;;;;17.43;100;95349.88;;;;
2019/08/28 02:14:12;;;;;;;15.05;13.65;;;;;;;17.43;100;95349.88;;;;
2019/08/28 02:15:13;;;;;;;15.05;13.65;;;;;;;17.43;100;95349.88;;;;
2019/08/28 02:16:15;;;;;;;15.05;13.65;;;;;;;17.43;100;95349.88;;;;
2019/08/28 02:17:16;;;;;;;15.05;13.65;;;;;;;17.43;100;95349.88;;;;
2019/08/28 02:18:18;;;;;;;15.05;13.65;;;;;;;17.43;100;95349.88;;;;
2019/08/28 02:19:19;;;;;;;15.05;13.65;;;;;;;17.43;100;95349.88;;;;
2019/08/28 02:20:20;;;;;;;15.05;13.65;;;;;;;17.43;100;95349.88;;;;
2019/08/28 02:21:22;;;;;;;15.05;13.65;;;;;;;17.43;100;95349.88;;;;
2019/08/28 02:22:23;;;;;;;14.9;13.15;;;;;;;17.05;100;95352.09;;;;
2019/08/28 02:23:24;;;;;;;14.9;13.15;;;;;;;17.05;100;95352.09;;;;
2019/08/28 02:24:25;;;;;;;14.1;12.75;;;;;;;17.02;100;95348.56;;;;
2019/08/28 02:25:27;;;;;;;14.1;12.75;;;;;;;17.02;100;95348.56;;;;
2019/08/28 02:26:28;;;;;;;14.1;12.75;;;;;;;17.02;100;95348.56;;;;
2019/08/28 02:27:30;;;;;;;13.25;12.05;;;;;;;17.05;100;95357.56;;;;
2019/08/28 02:28:31;;;;;;;13.25;12.05;;;;;;;17.05;100;95357.56;;;;
2019/08/28 02:29:32;;;;;;;14.3;13;;;;;;;17.08;100;95357.98;;;;
2019/08/28 02:30:33;;;;;;;14.3;13;;;;;;;17.08;100;95357.98;;;;
2019/08/28 02:31:38;;;;;;;14.3;13;;;;;;;17.08;100;95357.98;;;;
2019/08/28 02:32:39;;;;;;;13.7;12.5;;;;;;;17.11;100;95355.22;;;;
2019/08/28 02:33:40;;;;;;;13.7;12.5;;;;;;;17.11;100;95355.22;;;;
2019/08/28 02:34:41;;;;;;;13.7;12.5;;;;;;;17.11;100;95355.22;;;;
2019/08/28 02:35:42;;;;;;;14.6;13.2;;;;;;;17.12;100;95342.7;;;;
2019/08/28 02:36:43;;;;;;;14.6;13.2;;;;;;;17.12;100;95342.7;;;;
2019/08/28 02:37:45;;;;;;;14.85;13.35;;;;;;;17.14;100;95342.42;;;;
2019/08/28 02:38:46;;;;;;;14.85;13.35;;;;;;;17.14;100;95342.42;;;;
2019/08/28 02:39:47;;;;;;;14.85;13.35;;;;;;;17.14;100;95342.42;;;;
2019/08/28 02:40:48;;;;;;;14.35;13.05;;;;;;;17.15;100;95349.5;;;;
2019/08/28 02:41:49;;;;;;;14.35;13.05;;;;;;;17.15;100;95349.5;;;;
2019/08/28 02:42:51;;;;;;;14.35;13.05;;;;;;;17.15;100;95349.5;;;;
2019/08/28 02:43:52;;;;;;;14.35;13.05;;;;;;;17.15;100;95349.5;;;;
2019/08/28 02:44:53;;;;;;;14.35;13.05;;;;;;;17.15;100;95349.5;;;;
2019/08/28 02:45:54;;;;;;;14.35;13.05;;;;;;;17.15;100;95349.5;;;;
2019/08/28 02:46:55;;;;;;;14.35;13.05;;;;;;;17.15;100;95349.5;;;;
2019/08/28 02:47:56;;;;;;;14.35;13.05;;;;;;;17.15;100;95349.5;;;;
2019/08/28 02:48:57;;;;;;;14.35;13.05;;;;;;;17.15;100;95349.5;;;;
2019/08/28 02:49:59;;;;;;;14.35;13.05;;;;;;;17.15;100;95349.5;;;;
2019/08/28 02:51:00;;;;;;;14.4;13.1;;;;;;;16.89;100;95341.5;;;;
2019/08/28 02:52:01;;;;;;;14.4;13.1;;;;;;;16.89;100;95341.5;;;;
2019/08/28 02:53:02;;;;;;;14.4;13.1;;;;;;;16.89;100;95341.5;;;;
2019/08/28 02:54:03;;;;;;;14.55;13.15;;;;;;;16.92;100;95346.81;;;;
2019/08/28 02:55:05;;;;;;;14.55;13.15;;;;;;;16.92;100;95346.81;;;;
2019/08/28 02:56:07;;;;;;;13.8;12.6;;;;;;;17;100;95347.6;;;;
2019/08/28 02:57:08;;;;;;;13.8;12.6;;;;;;;17;100;95347.6;;;;
2019/08/28 02:58:09;;;;;;;13.8;12.6;;;;;;;17;100;95347.6;;;;
2019/08/28 02:59:10;;;;;;;14.3;13;;;;;;;17.08;100;95347.48;;;;
2019/08/28 03:00:12;;;;;;;14.3;13;;;;;;;17.08;100;95347.48;;;;
2019/08/28 03:01:14;;;;;;;14.3;13;;;;;;;17.08;100;95347.48;;;;
2019/08/28 03:02:15;;;;;;;14.85;13.2;;;;;;;17.15;100;95347.6;;;;
2019/08/28 03:03:17;;;;;;;14.85;13.2;;;;;;;17.15;100;95347.6;;;;
2019/08/28 03:04:18;;;;;;;14.25;12.95;;;;;;;17.21;100;95347.05;;;;
2019/08/28 03:05:19;;;;;;;14.25;12.95;;;;;;;17.21;100;95347.05;;;;
2019/08/28 03:06:21;;;;;;;14.25;12.95;;;;;;;17.21;100;95347.05;;;;
2019/08/28 03:07:23;;;;;;;14.35;12.95;;;;;;;17.25;100;95339.38;;;;
2019/08/28 03:08:24;;;;;;;14.35;12.95;;;;;;;17.25;100;95339.38;;;;
2019/08/28 03:09:25;;;;;;;14.15;12.8;;;;;;;17.28;100;95334.76;;;;
2019/08/28 03:10:26;;;;;;;14.15;12.8;;;;;;;17.28;100;95334.76;;;;
2019/08/28 03:11:28;;;;;;;14.15;12.8;;;;;;;17.28;100;95334.76;;;;
2019/08/28 03:12:29;;;;;;;14.15;12.8;;;;;;;17.28;100;95334.76;;;;
2019/08/28 03:13:31;;;;;;;14.15;12.8;;;;;;;17.28;100;95334.76;;;;
2019/08/28 03:14:32;;;;;;;14.15;12.8;;;;;;;17.28;100;95334.76;;;;
2019/08/28 03:15:33;;;;;;;14.15;12.8;;;;;;;17.28;100;95334.76;;;;
2019/08/28 03:16:38;;;;;;;14.15;12.8;;;;;;;17.28;100;95334.76;;;;
2019/08/28 03:17:39;;;;;;;14.15;12.8;;;;;;;17.28;100;95334.76;;;;
2019/08/28 03:18:41;;;;;;;14.15;12.8;;;;;;;17.28;100;95334.76;;;;
2019/08/28 03:19:42;;;;;;;14.15;12.8;;;;;;;17.28;100;95334.76;;;;
2019/08/28 03:20:43;;;;;;;15.15;12.8;;;;;;;17;100;95347.6;;;;
2019/08/28 03:21:44;;;;;;;15.15;12.8;;;;;;;17;100;95347.6;;;;
2019/08/28 03:22:45;;;;;;;14.9;13.45;;;;;;;16.99;100;95345.03;;;;
2019/08/28 03:23:46;;;;;;;14.9;13.45;;;;;;;16.99;100;95345.03;;;;
2019/08/28 03:24:48;;;;;;;14.9;13.45;;;;;;;16.99;100;95345.03;;;;
2019/08/28 03:25:49;;;;;;;14.9;13.45;;;;;;;16.99;100;95345.03;;;;
2019/08/28 03:26:50;;;;;;;14.9;13.45;;;;;;;16.99;100;95345.03;;;;
2019/08/28 03:27:51;;;;;;;14.9;13.45;;;;;;;16.99;100;95345.03;;;;
2019/08/28 03:28:52;;;;;;;14.9;13.45;;;;;;;16.99;100;95345.03;;;;
2019/08/28 03:29:53;;;;;;;14.9;13.45;;;;;;;16.99;100;95345.03;;;;
2019/08/28 03:30:54;;;;;;;14.9;13.45;;;;;;;16.99;100;95345.03;;;;
2019/08/28 03:31:56;;;;;;;14.9;13.45;;;;;;;16.99;100;95345.03;;;;
2019/08/28 03:32:57;;;;;;;14.9;13.45;;;;;;;16.99;100;95345.03;;;;
2019/08/28 03:33:58;;;;;;;14.3;12.8;;;;;;;16.84;100;95354.16;;;;
2019/08/28 03:34:59;;;;;;;14.3;12.8;;;;;;;16.84;100;95354.16;;;;
2019/08/28 03:36:00;;;;;;;13.95;12.6;;;;;;;16.88;100;95355.8;;;;
2019/08/28 03:37:02;;;;;;;13.95;12.6;;;;;;;16.88;100;95355.8;;;;
2019/08/28 03:38:03;;;;;;;13.95;12.6;;;;;;;16.88;100;95355.8;;;;
2019/08/28 03:39:05;;;;;;;13.95;12.6;;;;;;;16.88;100;95355.8;;;;
2019/08/28 03:40:07;;;;;;;13.95;12.6;;;;;;;16.88;100;95355.8;;;;
2019/08/28 03:41:10;;;;;;;13.95;12.6;;;;;;;16.88;100;95355.8;;;;
2019/08/28 03:42:11;;;;;;;13.95;12.6;;;;;;;16.88;100;95355.8;;;;
2019/08/28 03:43:13;;;;;;;13.95;12.6;;;;;;;16.88;100;95355.8;;;;
2019/08/28 03:44:14;;;;;;;13.95;12.6;;;;;;;16.88;100;95355.8;;;;
2019/08/28 03:45:15;;;;;;;13.95;12.6;;;;;;;16.88;100;95355.8;;;;
2019/08/28 03:46:19;;;;;;;13.95;12.6;;;;;;;16.88;100;95355.8;;;;
2019/08/28 03:47:20;;;;;;;14.4;12.95;;;;;;;16.81;100;95348.85;;;;
2019/08/28 03:48:22;;;;;;;14.4;12.95;;;;;;;16.81;100;95348.85;;;;
2019/08/28 03:49:23;;;;;;;14.8;13.3;;;;;;;16.84;100;95352;;;;
2019/08/28 03:50:24;;;;;;;14.8;13.3;;;;;;;16.84;100;95352;;;;
2019/08/28 03:51:26;;;;;;;14.8;13.3;;;;;;;16.84;100;95352;;;;
2019/08/28 03:52:27;;;;;;;13.2;12;;;;;;;16.93;100;95355.66;;;;
2019/08/28 03:53:28;;;;;;;13.2;12;;;;;;;16.93;100;95355.66;;;;
2019/08/28 03:54:29;;;;;;;13.1;11.9;;;;;;;17.02;100;95357.28;;;;
2019/08/28 03:55:31;;;;;;;13.1;11.9;;;;;;;17.02;100;95357.28;;;;
2019/08/28 03:56:36;;;;;;;13.1;11.9;;;;;;;17.02;100;95357.28;;;;
2019/08/28 03:57:37;;;;;;;12.95;11.75;;;;;;;17.09;100;95356.87;;;;
2019/08/28 03:58:38;;;;;;;12.95;11.75;;;;;;;17.09;100;95356.87;;;;
2019/08/28 03:59:39;;;;;;;13.15;11.85;;;;;;;17.16;100;95353.88;;;;
2019/08/28 04:00:41;;;;;;;13.15;11.85;;;;;;;17.16;100;95353.88;;;;
2019/08/28 04:01:43;;;;;;;13.15;11.85;;;;;;;17.16;100;95353.88;;;;
2019/08/28 04:02:44;;;;;;;13.35;11.85;;;;;;;17.23;100;95357.14;;;;
2019/08/28 04:03:45;;;;;;;13.35;11.85;;;;;;;17.23;100;95357.14;;;;
2019/08/28 04:04:47;;;;;;;13.35;11.85;;;;;;;17.23;100;95357.14;;;;
2019/08/28 04:05:48;;;;;;;13.85;12.45;;;;;;;17.28;100;95357.95;;;;
2019/08/28 04:06:49;;;;;;;13.85;12.45;;;;;;;17.28;100;95357.95;;;;
2019/08/28 04:07:50;;;;;;;13.85;12.45;;;;;;;17.28;100;95357.95;;;;
2019/08/28 04:08:51;;;;;;;13.85;12.45;;;;;;;17.28;100;95357.95;;;;
2019/08/28 04:09:52;;;;;;;13.85;12.45;;;;;;;17.28;100;95357.95;;;;
2019/08/28 04:10:53;;;;;;;13.85;12.45;;;;;;;17.28;100;95357.95;;;;
2019/08/28 04:11:55;;;;;;;13.85;12.45;;;;;;;17.28;100;95357.95;;;;
2019/08/28 04:12:56;;;;;;;13.85;12.45;;;;;;;17.28;100;95357.95;;;;
2019/08/28 04:13:57;;;;;;;13.85;12.45;;;;;;;17.28;100;95357.95;;;;
2019/08/28 04:14:58;;;;;;;13.85;12.45;;;;;;;17.28;100;95357.95;;;;
2019/08/28 04:17:09;;;;;;;13.05;11.8;;;;;;;17.15;100;95364.51;;;;
2019/08/28 04:19:26;;;;;;;13.05;11.8;;;;;;;17.15;100;95364.51;;;;
2019/08/28 04:20:38;;;;;;;13.05;11.8;;;;;;;17.15;100;95364.51;;;;
2019/08/28 04:21:44;;;;;;;13.05;11.8;;;;;;;17.15;100;95364.51;;;;
2019/08/28 04:22:45;;;;;;;13.05;11.8;;;;;;;17.15;100;95364.51;;;;
2019/08/28 04:23:46;;;;;;;13.05;11.8;;;;;;;17.15;100;95364.51;;;;
2019/08/28 04:24:48;;;;;;;13.05;11.8;;;;;;;17.15;100;95364.51;;;;
2019/08/28 04:25:49;;;;;;;13.05;11.8;;;;;;;17.15;100;95364.51;;;;
2019/08/28 04:26:50;;;;;;;13.7;11.35;;;;;;;17.23;100;95364.79;;;;
2019/08/28 04:27:51;;;;;;;13.7;11.35;;;;;;;17.23;100;95364.79;;;;
2019/08/28 04:28:52;;;;;;;13.7;11.35;;;;;;;17.23;100;95364.79;;;;
2019/08/28 04:29:53;;;;;;;13.7;11.35;;;;;;;17.23;100;95364.79;;;;
2019/08/28 04:30:55;;;;;;;13.7;11.35;;;;;;;17.23;100;95364.79;;;;
2019/08/28 04:31:56;;;;;;;13.7;11.35;;;;;;;17.23;100;95364.79;;;;
2019/08/28 04:32:57;;;;;;;13.7;11.35;;;;;;;17.23;100;95364.79;;;;
2019/08/28 04:33:58;;;;;;;13.7;11.35;;;;;;;17.23;100;95364.79;;;;
2019/08/28 04:34:59;;;;;;;13.7;11.35;;;;;;;17.23;100;95364.79;;;;
2019/08/28 04:36:00;;;;;;;13.7;11.35;;;;;;;17.23;100;95364.79;;;;
2019/08/28 04:37:02;;;;;;;12.95;11.55;;;;;;;17.29;100;95381;;;;
2019/08/28 04:38:03;;;;;;;12.95;11.55;;;;;;;17.29;100;95381;;;;
2019/08/28 04:39:04;;;;;;;12.95;11.55;;;;;;;17.29;100;95381;;;;
2019/08/28 04:40:06;;;;;;;12.85;11.65;;;;;;;17.37;100;95379.63;;;;
2019/08/28 04:41:08;;;;;;;12.85;11.65;;;;;;;17.37;100;95379.63;;;;
2019/08/28 04:42:09;;;;;;;12.85;11.65;;;;;;;17.37;100;95379.63;;;;
2019/08/28 04:43:10;;;;;;;12.85;11.65;;;;;;;17.37;100;95379.63;;;;
2019/08/28 04:44:12;;;;;;;12.85;11.65;;;;;;;17.37;100;95379.63;;;;
2019/08/28 04:45:13;;;;;;;12.85;11.65;;;;;;;17.37;100;95379.63;;;;
2019/08/28 04:46:16;;;;;;;12.85;11.65;;;;;;;17.37;100;95379.63;;;;
2019/08/28 04:47:17;;;;;;;12.85;11.65;;;;;;;17.37;100;95379.63;;;;
2019/08/28 04:48:18;;;;;;;12.85;11.65;;;;;;;17.37;100;95379.63;;;;
2019/08/28 04:49:19;;;;;;;12.85;11.65;;;;;;;17.37;100;95379.63;;;;
2019/08/28 04:50:21;;;;;;;12.45;11.25;;;;;;;17.47;100;95390.55;;;;
2019/08/28 04:51:23;;;;;;;12.45;11.25;;;;;;;17.47;100;95390.55;;;;
2019/08/28 04:52:24;;;;;;;12.45;11.25;;;;;;;17.47;100;95390.55;;;;
2019/08/28 04:53:25;;;;;;;12.45;11.25;;;;;;;17.47;100;95390.55;;;;
2019/08/28 04:54:26;;;;;;;12.45;11.25;;;;;;;17.47;100;95390.55;;;;
2019/08/28 04:55:27;;;;;;;12.45;11.25;;;;;;;17.47;100;95390.55;;;;
2019/08/28 04:56:29;;;;;;;12.45;11.25;;;;;;;17.47;100;95390.55;;;;
2019/08/28 04:57:30;;;;;;;12.45;11.25;;;;;;;17.47;100;95390.55;;;;
2019/08/28 04:58:31;;;;;;;12.45;11.25;;;;;;;17.47;100;95390.55;;;;
2019/08/28 04:59:32;;;;;;;12.45;11.25;;;;;;;17.47;100;95390.55;;;;
2019/08/28 05:00:33;;;;;;;12.45;11.25;;;;;;;17.47;100;95390.55;;;;
2019/08/28 05:01:35;;;;;;;11.65;10.55;;;;;;;17.59;100;95390.14;;;;
2019/08/28 05:02:36;;;;;;;11.65;10.55;;;;;;;17.59;100;95390.14;;;;
2019/08/28 05:03:37;;;;;;;11.65;10.55;;;;;;;17.59;100;95390.14;;;;
2019/08/28 05:04:39;;;;;;;11.65;10.55;;;;;;;17.59;100;95390.14;;;;
2019/08/28 05:05:40;;;;;;;11.65;10.55;;;;;;;17.59;100;95390.14;;;;
2019/08/28 05:06:41;;;;;;;11.65;10.55;;;;;;;17.59;100;95390.14;;;;
2019/08/28 05:07:42;;;;;;;11.65;10.55;;;;;;;17.59;100;95390.14;;;;
2019/08/28 05:08:44;;;;;;;11.65;10.55;;;;;;;17.59;100;95390.14;;;;
2019/08/28 05:09:45;;;;;;;11.65;10.55;;;;;;;17.59;100;95390.14;;;;
2019/08/28 05:10:46;;;;;;;11.65;10.55;;;;;;;17.59;100;95390.14;;;;
2019/08/28 05:11:47;;;;;;;13.1;10.85;;;;;;;17.68;100;95396.67;;;;
2019/08/28 05:12:48;;;;;;;13.1;10.85;;;;;;;17.68;100;95396.67;;;;
2019/08/28 05:13:49;;;;;;;13.1;10.85;;;;;;;17.68;100;95396.67;;;;
2019/08/28 05:14:50;;;;;;;13.1;10.85;;;;;;;17.68;100;95396.67;;;;
2019/08/28 05:15:52;;;;;;;13.1;10.85;;;;;;;17.68;100;95396.67;;;;
2019/08/28 05:16:53;;;;;;;13.1;10.85;;;;;;;17.68;100;95396.67;;;;
2019/08/28 05:17:54;;;;;;;13.1;10.85;;;;;;;17.68;100;95396.67;;;;
2019/08/28 05:18:55;;;;;;;13.1;10.85;;;;;;;17.68;100;95396.67;;;;
2019/08/28 05:19:56;;;;;;;13.1;10.85;;;;;;;17.68;100;95396.67;;;;
2019/08/28 05:20:57;;;;;;;13.1;10.85;;;;;;;17.68;100;95396.67;;;;
2019/08/28 05:21:58;;;;;;;13.65;11.8;;;;;;;17.9;100;95394.02;;;;
2019/08/28 05:22:59;;;;;;;13.65;11.8;;;;;;;17.9;100;95394.02;;;;
2019/08/28 05:24:01;;;;;;;13.65;11.8;;;;;;;17.9;100;95394.02;;;;
2019/08/28 05:25:02;;;;;;;13.65;11.8;;;;;;;17.9;100;95394.02;;;;
2019/08/28 05:26:04;;;;;;;13.65;11.8;;;;;;;17.9;100;95394.02;;;;
2019/08/28 05:27:06;;;;;;;13.65;11.8;;;;;;;17.9;100;95394.02;;;;
2019/08/28 05:28:07;;;;;;;13.65;11.8;;;;;;;17.9;100;95394.02;;;;
2019/08/28 05:29:08;;;;;;;13.65;11.8;;;;;;;17.9;100;95394.02;;;;
2019/08/28 05:30:09;;;;;;;13.65;11.8;;;;;;;17.9;100;95394.02;;;;
2019/08/28 05:31:11;;;;;;;13.65;11.8;;;;;;;17.9;100;95394.02;;;;
2019/08/28 05:32:12;;;;;;;13.65;11.8;;;;;;;17.9;100;95394.02;;;;
2019/08/28 05:33:14;;;;;;;11.9;10.7;;;;;;;18.19;100;95404.94;;;;
2019/08/28 05:34:15;;;;;;;11.9;10.7;;;;;;;18.19;100;95404.94;;;;
2019/08/28 05:35:16;;;;;;;11.9;10.7;;;;;;;18.19;100;95404.94;;;;
2019/08/28 05:36:19;;;;;;;11.9;10.7;;;;;;;18.19;100;95404.94;;;;
2019/08/28 05:37:20;;;;;;;11.9;10.7;;;;;;;18.19;100;95404.94;;;;
2019/08/28 05:38:22;;;;;;;11.9;10.7;;;;;;;18.19;100;95404.94;;;;
2019/08/28 05:39:23;;;;;;;11.9;10.7;;;;;;;18.19;100;95404.94;;;;
2019/08/28 05:40:24;;;;;;;11.9;10.7;;;;;;;18.19;100;95404.94;;;;
2019/08/28 05:41:27;;;;;;;11.9;10.7;;;;;;;18.19;100;95404.94;;;;
2019/08/28 05:42:28;;;;;;;11.9;10.7;;;;;;;18.19;100;95404.94;;;;
2019/08/28 05:43:29;;;;;;;13.9;11.3;;;;;;;18.6;100;95404.24;;;;
2019/08/28 05:44:31;;;;;;;13.9;11.3;;;;;;;18.6;100;95404.24;;;;
2019/08/28 05:45:32;;;;;;;13.9;11.3;;;;;;;18.6;100;95404.24;;;;
2019/08/28 05:46:34;;;;;;;13.9;11.3;;;;;;;18.6;100;95404.24;;;;
2019/08/28 05:47:35;;;;;;;13.9;11.3;;;;;;;18.6;100;95404.24;;;;
2019/08/28 05:48:36;;;;;;;13.9;11.3;;;;;;;18.6;100;95404.24;;;;
2019/08/28 05:49:37;;;;;;;13.9;11.3;;;;;;;18.6;100;95404.24;;;;
2019/08/28 05:50:38;;;;;;;13.9;11.3;;;;;;;18.6;100;95404.24;;;;
2019/08/28 05:51:40;;;;;;;13.9;11.3;;;;;;;18.6;100;95404.24;;;;
2019/08/28 05:52:41;;;;;;;13.9;11.3;;;;;;;18.6;100;95404.24;;;;
2019/08/28 05:53:42;;;;;;;13.9;11.3;;;;;;;18.6;100;95404.24;;;;
2019/08/28 05:54:43;;;;;;;11.95;10.6;;;;;;;19;100;95407.21;;;;
2019/08/28 05:55:44;;;;;;;11.95;10.6;;;;;;;19;100;95407.21;;;;
2019/08/28 05:56:45;;;;;;;11.95;10.6;;;;;;;19;100;95407.21;;;;
2019/08/28 05:57:46;;;;;;;11.95;10.6;;;;;;;19;100;95407.21;;;;
2019/08/28 05:58:47;;;;;;;11.95;10.6;;;;;;;19;100;95407.21;;;;
2019/08/28 05:59:48;;;;;;;11.95;10.6;;;;;;;19;100;95407.21;;;;
2019/08/28 06:00:50;;;;;;;11.95;10.6;;;;;;;19;100;95407.21;;;;
2019/08/28 06:01:51;;;;;;;11.95;10.6;;;;;;;19;100;95407.21;;;;
2019/08/28 06:02:52;;;;;;;11.95;10.6;;;;;;;19;100;95407.21;;;;
2019/08/28 06:03:53;;;;;;;11.95;10.6;;;;;;;19;100;95407.21;;;;
2019/08/28 06:04:54;;;;;;;11.3;10.2;;;;;;;19.52;100;95395.84;;;;
2019/08/28 06:05:56;;;;;;;11.3;10.2;;;;;;;19.52;100;95395.84;;;;
2019/08/28 06:06:57;;;;;;;11.3;10.2;;;;;;;19.52;100;95395.84;;;;
2019/08/28 06:07:58;;;;;;;11.3;10.2;;;;;;;19.52;100;95395.84;;;;
2019/08/28 06:08:59;;;;;;;11.3;10.2;;;;;;;19.52;100;95395.84;;;;
2019/08/28 06:10:00;;;;;;;11.3;10.2;;;;;;;19.52;100;95395.84;;;;
2019/08/28 06:11:01;;;;;;;11.3;10.2;;;;;;;19.52;100;95395.84;;;;
2019/08/28 06:12:03;;;;;;;11.3;10.2;;;;;;;19.52;100;95395.84;;;;
2019/08/28 06:13:04;;;;;;;11.3;10.2;;;;;;;19.52;100;95395.84;;;;
2019/08/28 06:14:05;;;;;;;11.3;10.2;;;;;;;19.52;100;95395.84;;;;
2019/08/28 06:15:06;;;;;;;12.05;10.45;;;;;;;20.05;100;95409.39;;;;
2019/08/28 06:16:08;;;;;;;12.05;10.45;;;;;;;20.05;100;95409.39;;;;
2019/08/28 06:17:09;;;;;;;12.05;10.45;;;;;;;20.05;100;95409.39;;;;
2019/08/28 06:18:10;;;;;;;12.4;11.05;;;;;;;20.24;100;95401.64;;;;
2019/08/28 06:19:12;;;;;;;12.4;11.05;;;;;;;20.24;100;95401.64;;;;